createdAt,value
2023-05-12T00:00:31.824Z,510.00
2023-05-12T00:01:31.883Z,504.00
2023-05-12T00:02:31.900Z,510.00
2023-05-12T00:03:32.048Z,506.00
2023-05-12T00:04:31.955Z,508.00
2023-05-12T00:05:31.912Z,509.00
2023-05-12T00:06:31.946Z,511.00
2023-05-12T00:07:31.968Z,510.00
2023-05-12T00:08:31.990Z,510.00
2023-05-12T00:09:32.951Z,511.00
2023-05-12T00:10:31.995Z,511.00
2023-05-12T00:11:31.987Z,511.00
2023-05-12T00:12:31.993Z,511.00
2023-05-12T00:13:32.037Z,511.00
2023-05-12T00:14:32.024Z,509.00
2023-05-12T00:15:32.026Z,512.00
2023-05-12T00:16:32.124Z,506.00
2023-05-12T00:17:32.078Z,509.00
2023-05-12T00:18:32.040Z,508.00
2023-05-12T00:19:32.033Z,513.00
2023-05-12T00:20:32.046Z,511.00
2023-05-12T00:21:32.066Z,506.00
2023-05-12T00:22:32.075Z,511.00
2023-05-12T00:23:32.073Z,510.00
2023-05-12T00:24:32.089Z,510.00
2023-05-12T00:25:32.107Z,509.00
2023-05-12T00:26:32.123Z,514.00
2023-05-12T00:27:32.139Z,515.00
2023-05-12T00:28:32.136Z,515.00
2023-05-12T00:29:32.125Z,508.00
2023-05-12T00:30:32.165Z,513.00
2023-05-12T00:31:32.216Z,505.00
2023-05-12T00:32:32.281Z,508.00
2023-05-12T00:33:32.272Z,506.00
2023-05-12T00:34:32.334Z,508.00
2023-05-12T00:35:32.337Z,506.00
2023-05-12T00:36:32.364Z,514.00
2023-05-12T00:37:32.404Z,504.00
2023-05-12T00:38:32.451Z,503.00
2023-05-12T00:39:32.486Z,509.00
2023-05-12T00:40:32.530Z,508.00
2023-05-12T00:41:32.556Z,512.00
2023-05-12T00:42:32.585Z,511.00
2023-05-12T00:43:32.620Z,509.00
2023-05-12T00:44:32.625Z,501.00
2023-05-12T00:45:32.701Z,507.00
2023-05-12T00:46:32.700Z,506.00
2023-05-12T00:47:32.746Z,510.00
2023-05-12T00:48:32.732Z,511.00
2023-05-12T00:49:32.767Z,509.00
2023-05-12T00:50:32.788Z,504.00
2023-05-12T00:51:32.802Z,503.00
2023-05-12T00:52:32.839Z,511.00
2023-05-12T00:53:44.892Z,508.00
2023-05-12T00:54:33.882Z,508.00
2023-05-12T00:55:32.880Z,509.00
2023-05-12T00:56:32.882Z,506.00
2023-05-12T00:57:32.890Z,503.00
2023-05-12T00:58:32.902Z,506.00
2023-05-12T00:59:32.923Z,505.00
2023-05-12T01:00:32.917Z,511.00
2023-05-12T01:01:32.958Z,507.00
2023-05-12T01:02:33.016Z,510.00
2023-05-12T01:03:33.047Z,510.00
2023-05-12T01:04:32.967Z,510.00
2023-05-12T01:05:32.959Z,506.00
2023-05-12T01:06:32.986Z,508.00
2023-05-12T01:07:32.996Z,506.00
2023-05-12T01:08:32.986Z,514.00
2023-05-12T01:09:32.998Z,515.00
2023-05-12T01:10:32.996Z,514.00
2023-05-12T01:11:33.020Z,515.00
2023-05-12T01:12:33.006Z,500.00
2023-05-12T01:13:33.026Z,508.00
2023-05-12T01:14:33.021Z,508.00
2023-05-12T01:15:33.046Z,503.00
2023-05-12T01:16:33.051Z,504.00
2023-05-12T01:17:33.171Z,508.00
2023-05-12T01:18:33.155Z,502.00
2023-05-12T01:19:33.171Z,505.00
2023-05-12T01:20:33.176Z,506.00
2023-05-12T01:21:33.230Z,506.00
2023-05-12T01:22:33.268Z,501.00
2023-05-12T01:23:33.295Z,504.00
2023-05-12T01:24:33.366Z,507.00
2023-05-12T01:25:33.379Z,506.00
2023-05-12T01:26:33.410Z,506.00
2023-05-12T01:27:33.570Z,508.00
2023-05-12T01:28:33.490Z,508.00
2023-05-12T01:29:33.530Z,517.00
2023-05-12T01:30:33.572Z,504.00
2023-05-12T01:31:33.684Z,508.00
2023-05-12T01:32:33.671Z,506.00
2023-05-12T01:33:33.674Z,511.00
2023-05-12T01:34:33.729Z,507.00
2023-05-12T01:35:33.776Z,512.00
2023-05-12T01:36:33.799Z,513.00
2023-05-12T01:37:33.837Z,506.00
2023-05-12T01:38:33.892Z,510.00
2023-05-12T01:39:33.943Z,512.00
2023-05-12T01:40:33.970Z,506.00
2023-05-12T01:41:34.063Z,509.00
2023-05-12T01:42:34.041Z,511.00
2023-05-12T01:43:34.072Z,516.00
2023-05-12T01:44:34.121Z,517.00
2023-05-12T01:45:34.152Z,512.00
2023-05-12T01:46:34.291Z,517.00
2023-05-12T01:47:34.261Z,512.00
2023-05-12T01:48:34.319Z,507.00
2023-05-12T01:49:34.304Z,514.00
2023-05-12T01:50:34.346Z,512.00
2023-05-12T01:51:34.469Z,507.00
2023-05-12T01:52:34.403Z,509.00
2023-05-12T01:53:34.439Z,507.00
2023-05-12T01:54:34.474Z,503.00
2023-05-12T01:55:34.511Z,515.00
2023-05-12T01:56:34.543Z,513.00
2023-05-12T01:57:34.590Z,514.00
2023-05-12T01:58:34.639Z,511.00
2023-05-12T01:59:34.722Z,503.00
2023-05-12T02:00:34.711Z,503.00
2023-05-12T02:01:34.758Z,500.00
2023-05-12T02:02:34.810Z,504.00
2023-05-12T02:03:34.809Z,507.00
2023-05-12T02:04:34.837Z,514.00
2023-05-12T02:05:34.824Z,504.00
2023-05-12T02:06:34.858Z,505.00
2023-05-12T02:07:34.911Z,510.00
2023-05-12T02:08:35.053Z,507.00
2023-05-12T02:09:35.000Z,508.00
2023-05-12T02:10:35.126Z,515.00
2023-05-12T02:11:35.072Z,505.00
2023-05-12T02:12:36.011Z,508.00
2023-05-12T02:13:35.142Z,510.00
2023-05-12T02:14:35.160Z,504.00
2023-05-12T02:15:35.174Z,505.00
2023-05-12T02:16:35.244Z,513.00
2023-05-12T02:17:35.257Z,506.00
2023-05-12T02:18:35.362Z,505.00
2023-05-12T02:19:35.336Z,503.00
2023-05-12T02:20:35.406Z,505.00
2023-05-12T02:21:35.453Z,506.00
2023-05-12T02:22:35.481Z,509.00
2023-05-12T02:23:35.517Z,502.00
2023-05-12T02:24:35.552Z,505.00
2023-05-12T02:25:35.584Z,503.00
2023-05-12T02:26:35.635Z,508.00
2023-05-12T02:27:35.675Z,502.00
2023-05-12T02:28:35.734Z,506.00
2023-05-12T02:29:35.742Z,508.00
2023-05-12T02:30:35.773Z,508.00
2023-05-12T02:31:35.839Z,515.00
2023-05-12T02:32:35.868Z,509.00
2023-05-12T02:33:35.870Z,515.00
2023-05-12T02:34:35.906Z,511.00
2023-05-12T02:35:35.939Z,502.00
2023-05-12T02:36:35.952Z,503.00
2023-05-12T02:37:35.962Z,505.00
2023-05-12T02:38:35.973Z,507.00
2023-05-12T02:39:35.989Z,511.00
2023-05-12T02:40:36.010Z,512.00
2023-05-12T02:41:36.032Z,512.00
2023-05-12T02:42:36.039Z,511.00
2023-05-12T02:43:36.059Z,514.00
2023-05-12T02:44:36.072Z,514.00
2023-05-12T02:45:36.123Z,514.00
2023-05-12T02:46:36.115Z,516.00
2023-05-12T02:47:36.130Z,514.00
2023-05-12T02:48:36.134Z,512.00
2023-05-12T02:49:36.171Z,511.00
2023-05-12T02:50:36.146Z,510.00
2023-05-12T02:51:36.186Z,515.00
2023-05-12T02:52:36.187Z,515.00
2023-05-12T02:53:36.199Z,515.00
2023-05-12T02:54:36.191Z,517.00
2023-05-12T02:55:36.271Z,513.00
2023-05-12T02:56:36.227Z,516.00
2023-05-12T02:57:36.234Z,510.00
2023-05-12T02:58:36.333Z,511.00
2023-05-12T02:59:36.261Z,509.00
2023-05-12T03:00:36.280Z,513.00
2023-05-12T03:01:36.305Z,506.00
2023-05-12T03:02:36.396Z,513.00
2023-05-12T03:03:36.358Z,510.00
2023-05-12T03:04:36.326Z,512.00
2023-05-12T03:05:36.313Z,512.00
2023-05-12T03:06:36.327Z,513.00
2023-05-12T03:07:36.357Z,513.00
2023-05-12T03:08:36.332Z,512.00
2023-05-12T03:09:36.354Z,516.00
2023-05-12T03:10:36.371Z,514.00
2023-05-12T03:11:36.374Z,513.00
2023-05-12T03:12:36.392Z,510.00
2023-05-12T03:13:36.483Z,511.00
2023-05-12T03:14:36.470Z,518.00
2023-05-12T03:15:36.502Z,513.00
2023-05-12T03:16:36.590Z,516.00
2023-05-12T03:17:36.671Z,516.00
2023-05-12T03:18:36.681Z,514.00
2023-05-12T03:19:36.663Z,511.00
2023-05-12T03:20:36.709Z,513.00
2023-05-12T03:21:36.735Z,514.00
2023-05-12T03:22:36.762Z,515.00
2023-05-12T03:23:36.797Z,520.00
2023-05-12T03:24:36.837Z,511.00
2023-05-12T03:25:36.872Z,507.00
2023-05-12T03:26:36.924Z,514.00
2023-05-12T03:27:36.993Z,510.00
2023-05-12T03:28:37.023Z,512.00
2023-05-12T03:29:37.044Z,516.00
2023-05-12T03:30:37.076Z,509.00
2023-05-12T03:31:37.121Z,510.00
2023-05-12T03:32:37.170Z,508.00
2023-05-12T03:33:37.178Z,511.00
2023-05-12T03:34:37.224Z,511.00
2023-05-12T03:35:37.260Z,510.00
2023-05-12T03:36:37.301Z,509.00
2023-05-12T03:37:37.331Z,509.00
2023-05-12T03:38:37.354Z,514.00
2023-05-12T03:39:37.392Z,510.00
2023-05-12T03:40:37.434Z,510.00
2023-05-12T03:41:37.473Z,510.00
2023-05-12T03:42:37.490Z,510.00
2023-05-12T03:43:37.488Z,511.00
2023-05-12T03:44:37.521Z,513.00
2023-05-12T03:45:37.505Z,513.00
2023-05-12T03:46:37.560Z,516.00
2023-05-12T03:47:37.703Z,510.00
2023-05-12T03:48:37.546Z,509.00
2023-05-12T03:49:37.517Z,511.00
2023-05-12T03:50:37.540Z,516.00
2023-05-12T03:51:37.546Z,512.00
2023-05-12T03:52:37.543Z,514.00
2023-05-12T03:53:37.548Z,510.00
2023-05-12T03:54:38.140Z,514.00
2023-05-12T03:55:37.567Z,513.00
2023-05-12T03:56:37.586Z,514.00
2023-05-12T03:57:37.648Z,513.00
2023-05-12T03:58:37.608Z,511.00
2023-05-12T03:59:37.613Z,510.00
2023-05-12T04:00:38.869Z,509.00
2023-05-12T04:01:37.735Z,507.00
2023-05-12T04:02:37.808Z,509.00
2023-05-12T04:03:37.849Z,514.00
2023-05-12T04:04:37.784Z,508.00
2023-05-12T04:05:37.841Z,516.00
2023-05-12T04:06:37.891Z,513.00
2023-05-12T04:07:37.929Z,510.00
2023-05-12T04:08:39.720Z,515.00
2023-05-12T04:09:38.015Z,513.00
2023-05-12T04:10:37.996Z,514.00
2023-05-12T04:11:38.018Z,510.00
2023-05-12T04:12:38.008Z,513.00
2023-05-12T04:13:38.004Z,509.00
2023-05-12T04:14:42.851Z,511.00
2023-05-12T04:15:39.004Z,512.00
2023-05-12T04:16:38.046Z,514.00
2023-05-12T04:17:38.040Z,513.00
2023-05-12T04:18:38.060Z,513.00
2023-05-12T04:19:38.048Z,522.00
2023-05-12T04:20:38.048Z,510.00
2023-05-12T04:21:38.129Z,514.00
2023-05-12T04:22:38.072Z,510.00
2023-05-12T04:23:38.083Z,515.00
2023-05-12T04:24:38.092Z,511.00
2023-05-12T04:25:38.105Z,508.00
2023-05-12T04:26:38.109Z,512.00
2023-05-12T04:27:38.135Z,516.00
2023-05-12T04:28:38.126Z,511.00
2023-05-12T04:29:38.161Z,510.00
2023-05-12T04:30:38.192Z,504.00
2023-05-12T04:31:38.316Z,511.00
2023-05-12T04:32:38.315Z,511.00
2023-05-12T04:33:38.385Z,515.00
2023-05-12T04:34:38.412Z,518.00
2023-05-12T04:35:38.483Z,512.00
2023-05-12T04:36:38.523Z,513.00
2023-05-12T04:37:38.561Z,510.00
2023-05-12T04:38:38.605Z,515.00
2023-05-12T04:39:38.658Z,510.00
2023-05-12T04:40:38.698Z,511.00
2023-05-12T04:41:38.777Z,504.00
2023-05-12T04:42:38.846Z,514.00
2023-05-12T04:44:38.866Z,509.00
2023-05-12T04:45:38.880Z,510.00
2023-05-12T04:46:38.950Z,514.00
2023-05-12T04:47:39.012Z,516.00
2023-05-12T04:48:38.916Z,511.00
2023-05-12T04:49:38.946Z,514.00
2023-05-12T04:50:38.949Z,512.00
2023-05-12T04:51:38.969Z,513.00
2023-05-12T04:52:38.984Z,505.00
2023-05-12T04:53:39.081Z,511.00
2023-05-12T04:54:39.051Z,513.00
2023-05-12T04:55:39.059Z,516.00
2023-05-12T04:56:39.024Z,517.00
2023-05-12T04:57:39.132Z,517.00
2023-05-12T04:58:39.053Z,517.00
2023-05-12T04:59:41.041Z,518.00
2023-05-12T05:00:39.166Z,518.00
2023-05-12T05:01:39.258Z,516.00
2023-05-12T05:02:39.229Z,516.00
2023-05-12T05:03:39.223Z,507.00
2023-05-12T05:04:39.146Z,511.00
2023-05-12T05:05:39.188Z,507.00
2023-05-12T05:06:39.290Z,513.00
2023-05-12T05:07:39.279Z,509.00
2023-05-12T05:08:39.303Z,513.00
2023-05-12T05:09:39.322Z,518.00
2023-05-12T05:10:39.337Z,515.00
2023-05-12T05:11:39.369Z,516.00
2023-05-12T05:12:39.415Z,516.00
2023-05-12T05:13:39.444Z,514.00
2023-05-12T05:14:39.475Z,526.00
2023-05-12T05:15:39.528Z,523.00
2023-05-12T05:16:39.548Z,518.00
2023-05-12T05:17:39.641Z,516.00
2023-05-12T05:18:39.646Z,518.00
2023-05-12T05:19:53.715Z,517.00
2023-05-12T05:20:43.786Z,517.00
2023-05-12T05:21:39.687Z,518.00
2023-05-12T05:22:39.705Z,518.00
2023-05-12T05:23:39.715Z,520.00
2023-05-12T05:24:39.719Z,522.00
2023-05-12T05:25:39.771Z,525.00
2023-05-12T05:26:39.754Z,535.00
2023-05-12T05:27:39.777Z,518.00
2023-05-12T05:28:39.977Z,519.00
2023-05-12T05:29:39.805Z,523.00
2023-05-12T05:30:40.610Z,523.00
2023-05-12T05:31:39.869Z,519.00
2023-05-12T05:32:39.879Z,521.00
2023-05-12T05:33:39.865Z,520.00
2023-05-12T05:34:39.901Z,521.00
2023-05-12T05:35:39.901Z,519.00
2023-05-12T05:36:39.889Z,527.00
2023-05-12T05:37:39.995Z,538.00
2023-05-12T05:38:39.952Z,547.00
2023-05-12T05:39:39.941Z,570.00
2023-05-12T05:40:52.340Z,591.00
2023-05-12T05:41:40.944Z,593.00
2023-05-12T05:42:39.949Z,601.00
2023-05-12T05:43:39.957Z,617.00
2023-05-12T05:44:39.978Z,652.00
2023-05-12T05:45:39.985Z,768.00
2023-05-12T05:46:40.050Z,804.00
2023-05-12T05:47:40.132Z,840.00
2023-05-12T05:48:39.997Z,856.00
2023-05-12T05:49:39.993Z,891.00
2023-05-12T05:50:40.070Z,917.00
2023-05-12T05:51:40.000Z,951.00
2023-05-12T05:52:40.072Z,960.00
2023-05-12T05:53:40.000Z,999.00
2023-05-12T05:54:40.004Z,1038.00
2023-05-12T05:55:40.003Z,1070.00
2023-05-12T05:56:40.025Z,1072.00
2023-05-12T05:57:40.032Z,1082.00
2023-05-12T05:58:40.023Z,1106.00
2023-05-12T05:59:40.051Z,1149.00
2023-05-12T06:00:40.023Z,1217.00
2023-05-12T06:01:40.057Z,1077.00
2023-05-12T06:02:40.089Z,1102.00
2023-05-12T06:03:40.100Z,1149.00
2023-05-12T06:04:40.022Z,1229.00
2023-05-12T06:05:40.021Z,1353.00
2023-05-12T06:06:40.024Z,1394.00
2023-05-12T06:07:40.028Z,1398.00
2023-05-12T06:08:40.031Z,1442.00
2023-05-12T06:09:40.055Z,1447.00
2023-05-12T06:10:40.056Z,1463.00
2023-05-12T06:11:40.059Z,1508.00
2023-05-12T06:12:40.069Z,1530.00
2023-05-12T06:13:40.102Z,1552.00
2023-05-12T06:14:40.177Z,1574.00
2023-05-12T06:15:40.203Z,1605.00
2023-05-12T06:16:40.305Z,1626.00
2023-05-12T06:17:40.335Z,1647.00
2023-05-12T06:18:40.345Z,1649.00
2023-05-12T06:19:40.314Z,1657.00
2023-05-12T06:20:40.321Z,1674.00
2023-05-12T06:21:40.315Z,1710.00
2023-05-12T06:22:40.346Z,1768.00
2023-05-12T06:23:40.323Z,1838.00
2023-05-12T06:24:40.346Z,1865.00
2023-05-12T06:25:40.419Z,1888.00
2023-05-12T06:26:40.361Z,1927.00
2023-05-12T06:27:40.354Z,1957.00
2023-05-12T06:28:40.386Z,2000.00
2023-05-12T06:29:40.351Z,2014.00
2023-05-12T06:30:41.106Z,2035.00
2023-05-12T06:31:40.593Z,2037.00
2023-05-12T06:32:40.626Z,2044.00
2023-05-12T06:33:40.631Z,2059.00
2023-05-12T06:34:40.658Z,2084.00
2023-05-12T06:35:40.651Z,2110.00
2023-05-12T06:36:40.675Z,2120.00
2023-05-12T06:37:40.696Z,2132.00
2023-05-12T06:38:40.722Z,2144.00
2023-05-12T06:39:40.719Z,2128.00
2023-05-12T06:40:40.764Z,2111.00
2023-05-12T06:41:40.786Z,2102.00
2023-05-12T06:42:40.843Z,2079.00
2023-05-12T06:43:40.864Z,2090.00
2023-05-12T06:44:42.339Z,2073.00
2023-05-12T06:45:40.865Z,2095.00
2023-05-12T06:46:40.882Z,2073.00
2023-05-12T06:47:40.949Z,2059.00
2023-05-12T06:48:40.906Z,2003.00
2023-05-12T06:49:40.906Z,2011.00
2023-05-12T06:50:40.913Z,2001.00
2023-05-12T06:51:40.942Z,1993.00
2023-05-12T06:52:40.957Z,1959.00
2023-05-12T06:53:40.981Z,1920.00
2023-05-12T06:54:40.992Z,1882.00
2023-05-12T06:55:41.020Z,1841.00
2023-05-12T06:56:41.070Z,1816.00
2023-05-12T06:57:41.091Z,1799.00
2023-05-12T06:58:41.133Z,1778.00
2023-05-12T06:59:41.138Z,1754.00
2023-05-12T07:00:41.173Z,1711.00
2023-05-12T07:01:41.329Z,1718.00
2023-05-12T07:02:41.382Z,1687.00
2023-05-12T07:03:41.344Z,1673.00
2023-05-12T07:04:41.351Z,1649.00
2023-05-12T07:05:41.444Z,1641.00
2023-05-12T07:06:41.384Z,1628.00
2023-05-12T07:07:41.446Z,1611.00
2023-05-12T07:08:41.486Z,1565.00
2023-05-12T07:09:41.533Z,1541.00
2023-05-12T07:10:41.558Z,1530.00
2023-05-12T07:11:41.610Z,1517.00
2023-05-12T07:12:41.656Z,1492.00
2023-05-12T07:13:41.765Z,1485.00
2023-05-12T07:14:41.757Z,1475.00
2023-05-12T07:15:41.995Z,1451.00
2023-05-12T07:16:41.809Z,1436.00
2023-05-12T07:17:42.018Z,1426.00
2023-05-12T07:18:42.181Z,1415.00
2023-05-12T07:19:41.954Z,1398.00
2023-05-12T07:20:42.022Z,1384.00
2023-05-12T07:21:42.088Z,1386.00
2023-05-12T07:22:42.188Z,1378.00
2023-05-12T07:23:42.158Z,1367.00
2023-05-12T07:24:42.239Z,1346.00
2023-05-12T07:25:42.302Z,1326.00
2023-05-12T07:26:42.305Z,1314.00
2023-05-12T07:27:42.334Z,1309.00
2023-05-12T07:28:42.401Z,1284.00
2023-05-12T07:29:42.446Z,1269.00
2023-05-12T07:30:42.442Z,1271.00
2023-05-12T07:31:42.493Z,1273.00
2023-05-12T07:32:42.466Z,1275.00
2023-05-12T07:33:42.440Z,1273.00
2023-05-12T07:34:42.493Z,1286.00
2023-05-12T07:35:42.417Z,1269.00
2023-05-12T07:36:42.415Z,1269.00
2023-05-12T07:37:42.801Z,1264.00
2023-05-12T07:38:42.425Z,1275.00
2023-05-12T07:39:42.399Z,1290.00
2023-05-12T07:40:42.392Z,1283.00
2023-05-12T07:41:42.395Z,1276.00
2023-05-12T07:42:42.422Z,1258.00
2023-05-12T07:43:42.484Z,889.00
2023-05-12T07:44:42.402Z,609.00
2023-05-12T07:45:42.421Z,851.00
2023-05-12T07:46:42.390Z,858.00
2023-05-12T07:47:42.417Z,862.00
2023-05-12T07:48:42.372Z,899.00
2023-05-12T07:49:42.340Z,950.00
2023-05-12T07:50:42.385Z,1022.00
2023-05-12T07:51:42.334Z,1078.00
2023-05-12T07:52:43.221Z,1094.00
2023-05-12T07:53:42.367Z,1102.00
2023-05-12T07:54:42.342Z,1111.00
2023-05-12T07:55:42.314Z,1131.00
2023-05-12T07:56:44.143Z,1125.00
2023-05-12T07:57:42.323Z,1157.00
2023-05-12T07:58:42.321Z,1164.00
2023-05-12T07:59:42.366Z,1148.00
2023-05-12T08:00:42.326Z,1140.00
2023-05-12T08:01:42.325Z,1123.00
2023-05-12T08:02:42.499Z,1129.00
2023-05-12T08:03:42.417Z,1131.00
2023-05-12T08:04:44.370Z,1131.00
2023-05-12T08:05:42.309Z,1133.00
2023-05-12T08:06:42.298Z,1131.00
2023-05-12T08:07:42.323Z,1147.00
2023-05-12T08:08:42.312Z,1133.00
2023-05-12T08:09:42.305Z,1139.00
2023-05-12T08:10:42.309Z,1146.00
2023-05-12T08:11:44.026Z,1157.00
2023-05-12T08:12:42.321Z,1142.00
2023-05-12T08:13:42.300Z,1094.00
2023-05-12T08:14:42.360Z,1086.00
2023-05-12T08:15:42.307Z,1127.00
2023-05-12T08:16:42.402Z,1123.00
2023-05-12T08:17:42.356Z,1131.00
2023-05-12T08:18:42.345Z,1106.00
2023-05-12T08:19:42.306Z,1062.00
2023-05-12T08:20:42.320Z,1073.00
2023-05-12T08:21:42.519Z,1036.00
2023-05-12T08:22:42.315Z,1053.00
2023-05-12T08:23:42.314Z,1039.00
2023-05-12T08:24:42.317Z,1024.00
2023-05-12T08:25:42.336Z,981.00
2023-05-12T08:26:42.445Z,1013.00
2023-05-12T08:27:42.376Z,1032.00
2023-05-12T08:28:42.334Z,976.00
2023-05-12T08:29:42.324Z,893.00
2023-05-12T08:30:42.426Z,745.00
2023-05-12T08:31:42.419Z,550.00
2023-05-12T08:32:42.397Z,400.00
2023-05-12T08:33:42.325Z,400.00
2023-05-12T08:34:42.320Z,408.00
2023-05-12T08:35:42.331Z,585.00
2023-05-12T08:36:42.381Z,867.00
2023-05-12T08:37:42.524Z,988.00
2023-05-12T08:38:42.491Z,1025.00
2023-05-12T08:39:42.529Z,973.00
2023-05-12T08:40:42.579Z,896.00
2023-05-12T08:41:43.169Z,800.00
2023-05-12T08:42:42.615Z,697.00
2023-05-12T08:43:42.666Z,607.00
2023-05-12T08:44:42.703Z,562.00
2023-05-12T08:45:42.725Z,514.00
2023-05-12T08:46:42.867Z,499.00
2023-05-12T08:47:42.866Z,500.00
2023-05-12T08:48:43.155Z,502.00
2023-05-12T08:49:42.856Z,475.00
2023-05-12T08:50:42.840Z,400.00
2023-05-12T08:51:43.660Z,400.00
2023-05-12T08:52:42.847Z,400.00
2023-05-12T08:53:42.888Z,400.00
2023-05-12T08:54:54.933Z,400.00
2023-05-12T08:55:54.172Z,400.00
2023-05-12T08:57:42.920Z,400.00
2023-05-12T08:58:42.936Z,400.00
2023-05-12T08:59:42.924Z,400.00
2023-05-12T09:00:42.973Z,400.00
2023-05-12T09:01:43.048Z,400.00
2023-05-12T09:02:53.155Z,400.00
2023-05-12T09:03:44.171Z,400.00
2023-05-12T09:04:43.224Z,400.00
2023-05-12T09:05:43.233Z,400.00
2023-05-12T09:06:43.342Z,400.00
2023-05-12T09:07:43.293Z,400.00
2023-05-12T09:08:43.339Z,463.00
2023-05-12T09:09:43.425Z,486.00
2023-05-12T09:10:43.424Z,520.00
2023-05-12T09:11:43.451Z,526.00
2023-05-12T09:12:43.502Z,498.00
2023-05-12T09:13:43.563Z,496.00
2023-05-12T09:14:43.599Z,541.00
2023-05-12T09:15:43.659Z,562.00
2023-05-12T09:16:43.782Z,574.00
2023-05-12T09:17:43.772Z,619.00
2023-05-12T09:18:43.833Z,567.00
2023-05-12T09:19:43.800Z,528.00
2023-05-12T09:20:43.855Z,500.00
2023-05-12T09:21:43.909Z,570.00
2023-05-12T09:22:43.953Z,624.00
2023-05-12T09:23:43.948Z,626.00
2023-05-12T09:24:44.028Z,527.00
2023-05-12T09:25:44.000Z,547.00
2023-05-12T09:26:43.969Z,581.00
2023-05-12T09:27:43.953Z,535.00
2023-05-12T09:28:44.039Z,568.00
2023-05-12T09:29:58.108Z,475.00
2023-05-12T09:30:45.026Z,527.00
2023-05-12T09:31:43.990Z,462.00
2023-05-12T09:32:43.965Z,504.00
2023-05-12T09:33:43.966Z,503.00
2023-05-12T09:34:43.981Z,527.00
2023-05-12T09:35:43.976Z,498.00
2023-05-12T09:36:43.979Z,558.00
2023-05-12T09:37:43.978Z,572.00
2023-05-12T09:38:44.012Z,537.00
2023-05-12T09:39:44.016Z,496.00
2023-05-12T09:40:44.016Z,502.00
2023-05-12T09:41:44.021Z,542.00
2023-05-12T09:42:44.030Z,607.00
2023-05-12T09:43:44.023Z,618.00
2023-05-12T09:44:44.013Z,662.00
2023-05-12T09:45:44.290Z,763.00
2023-05-12T09:46:44.195Z,887.00
2023-05-12T09:47:44.209Z,967.00
2023-05-12T09:48:44.192Z,1061.00
2023-05-12T09:49:44.261Z,1136.00
2023-05-12T09:50:47.315Z,1233.00
2023-05-12T09:51:44.402Z,1238.00
2023-05-12T09:52:44.259Z,1258.00
2023-05-12T09:53:44.288Z,1327.00
2023-05-12T09:54:44.278Z,1447.00
2023-05-12T09:55:44.246Z,1614.00
2023-05-12T09:56:44.252Z,1249.00
2023-05-12T09:57:44.312Z,1310.00
2023-05-12T09:58:44.252Z,1423.00
2023-05-12T09:59:44.257Z,1603.00
2023-05-12T10:01:44.264Z,1891.00
2023-05-12T10:02:44.294Z,1932.00
2023-05-12T10:03:44.277Z,1944.00
2023-05-12T10:04:44.273Z,1974.00
2023-05-12T10:05:44.227Z,1988.00
2023-05-12T10:06:44.262Z,2006.00
2023-05-12T10:07:44.292Z,2020.00
2023-05-12T10:08:44.340Z,2021.00
2023-05-12T10:09:44.376Z,2032.00
2023-05-12T10:10:44.371Z,2046.00
2023-05-12T10:11:44.371Z,2046.00
2023-05-12T10:12:44.415Z,2048.00
2023-05-12T10:13:44.375Z,2049.00
2023-05-12T10:14:44.390Z,2051.00
2023-05-12T10:15:44.544Z,2048.00
2023-05-12T10:16:44.375Z,2058.00
2023-05-12T10:17:44.451Z,2075.00
2023-05-12T10:18:44.425Z,2049.00
2023-05-12T10:19:44.369Z,2059.00
2023-05-12T10:20:44.349Z,2078.00
2023-05-12T10:21:44.356Z,2103.00
2023-05-12T10:22:44.365Z,2148.00
2023-05-12T10:23:44.386Z,2136.00
2023-05-12T10:24:44.398Z,2138.00
2023-05-12T10:25:44.362Z,2145.00
2023-05-12T10:26:45.160Z,2155.00
2023-05-12T10:27:44.400Z,2143.00
2023-05-12T10:28:44.368Z,2139.00
2023-05-12T10:29:44.436Z,2158.00
2023-05-12T10:30:44.357Z,2158.00
2023-05-12T10:31:44.407Z,2139.00
2023-05-12T10:32:44.407Z,2171.00
2023-05-12T10:33:44.406Z,2160.00
2023-05-12T10:34:44.426Z,2182.00
2023-05-12T10:35:45.405Z,2176.00
2023-05-12T10:36:44.636Z,2210.00
2023-05-12T10:37:44.599Z,2176.00
2023-05-12T10:38:44.638Z,2163.00
2023-05-12T10:39:44.672Z,2156.00
2023-05-12T10:40:44.744Z,2176.00
2023-05-12T10:41:44.767Z,2225.00
2023-05-12T10:42:44.787Z,2217.00
2023-05-12T10:43:44.811Z,2229.00
2023-05-12T10:44:44.824Z,2232.00
2023-05-12T10:45:45.773Z,2273.00
2023-05-12T10:46:45.046Z,2249.00
2023-05-12T10:47:44.966Z,2247.00
2023-05-12T10:48:44.949Z,2235.00
2023-05-12T10:49:44.977Z,2198.00
2023-05-12T10:50:44.987Z,2163.00
2023-05-12T10:51:45.056Z,2145.00
2023-05-12T10:52:45.043Z,2169.00
2023-05-12T10:53:50.188Z,2170.00
2023-05-12T10:54:46.060Z,2170.00
2023-05-12T10:55:45.268Z,2174.00
2023-05-12T10:56:45.300Z,2182.00
2023-05-12T10:57:45.280Z,2187.00
2023-05-12T10:58:45.302Z,2173.00
2023-05-12T10:59:45.281Z,2151.00
2023-05-12T11:00:45.863Z,2115.00
2023-05-12T11:01:46.520Z,2121.00
2023-05-12T11:02:45.931Z,2105.00
2023-05-12T11:03:46.019Z,2095.00
2023-05-12T11:04:45.313Z,2092.00
2023-05-12T11:05:45.946Z,2083.00
2023-05-12T11:06:45.657Z,2083.00
2023-05-12T11:07:45.637Z,2045.00
2023-05-12T11:08:46.003Z,2052.00
2023-05-12T11:09:56.869Z,2041.00
2023-05-12T11:10:47.073Z,2027.00
2023-05-12T11:11:45.765Z,2055.00
2023-05-12T11:12:45.236Z,2075.00
2023-05-12T11:13:45.277Z,2069.00
2023-05-12T11:14:45.199Z,2033.00
2023-05-12T11:15:45.202Z,2009.00
2023-05-12T11:16:45.295Z,1996.00
2023-05-12T11:17:45.248Z,1983.00
2023-05-12T11:18:47.709Z,1965.00
2023-05-12T11:19:45.353Z,1943.00
2023-05-12T11:20:46.202Z,1908.00
2023-05-12T11:21:45.416Z,1916.00
2023-05-12T11:22:45.825Z,1927.00
2023-05-12T11:23:45.517Z,1887.00
2023-05-12T11:24:45.612Z,1855.00
2023-05-12T11:25:45.758Z,1874.00
2023-05-12T11:26:45.763Z,1847.00
2023-05-12T11:27:46.397Z,1857.00
2023-05-12T11:28:45.808Z,1844.00
2023-05-12T11:29:46.215Z,1841.00
2023-05-12T11:30:45.828Z,1826.00
2023-05-12T11:31:45.817Z,1813.00
2023-05-12T11:32:45.923Z,1804.00
2023-05-12T11:33:45.907Z,1774.00
2023-05-12T11:34:46.234Z,1759.00
2023-05-12T11:35:45.969Z,1786.00
2023-05-12T11:36:46.002Z,1734.00
2023-05-12T11:37:46.037Z,1743.00
2023-05-12T11:38:46.066Z,1763.00
2023-05-12T11:39:46.105Z,1737.00
2023-05-12T11:40:46.176Z,1708.00
2023-05-12T11:41:46.149Z,1718.00
2023-05-12T11:42:46.207Z,1716.00
2023-05-12T11:43:46.234Z,1728.00
2023-05-12T11:44:46.256Z,1721.00
2023-05-12T11:45:46.414Z,1696.00
2023-05-12T11:46:46.319Z,1672.00
2023-05-12T11:47:46.374Z,1684.00
2023-05-12T11:48:46.366Z,1685.00
2023-05-12T11:49:46.448Z,1656.00
2023-05-12T11:50:46.434Z,1648.00
2023-05-12T11:51:46.453Z,1675.00
2023-05-12T11:52:46.464Z,1660.00
2023-05-12T11:53:46.520Z,1637.00
2023-05-12T11:54:46.538Z,1618.00
2023-05-12T11:55:46.551Z,1607.00
2023-05-12T11:56:46.577Z,1592.00
2023-05-12T11:57:46.611Z,1628.00
2023-05-12T11:58:46.615Z,1626.00
2023-05-12T11:59:46.664Z,1613.00
2023-05-12T12:00:46.649Z,1632.00
2023-05-12T12:01:46.670Z,1586.00
2023-05-12T12:02:46.715Z,1590.00
2023-05-12T12:03:46.794Z,1575.00
2023-05-12T12:04:46.710Z,1571.00
2023-05-12T12:05:46.781Z,1564.00
2023-05-12T12:06:46.747Z,1541.00
2023-05-12T12:07:46.778Z,1590.00
2023-05-12T12:08:46.764Z,1564.00
2023-05-12T12:09:46.803Z,1554.00
2023-05-12T12:10:46.812Z,1513.00
2023-05-12T12:11:46.851Z,1534.00
2023-05-12T12:12:46.865Z,1532.00
2023-05-12T12:13:46.878Z,1539.00
2023-05-12T12:14:46.896Z,1540.00
2023-05-12T12:15:46.977Z,1539.00
2023-05-12T12:16:46.913Z,1526.00
2023-05-12T12:17:46.997Z,1569.00
2023-05-12T12:18:46.993Z,1571.00
2023-05-12T12:19:47.000Z,1551.00
2023-05-12T12:20:46.991Z,1521.00
2023-05-12T12:21:47.057Z,1485.00
2023-05-12T12:22:47.027Z,1534.00